Time;durP1;ratioP1;P1;durP2;ratioP2;P2;SDS_P1;SDS_P2;PMS_P1;PMS_P2;Temp;Humidity;BMP_temperature;BMP_pressure;BME280_temperature;BME280_humidity;BME280_pressure;Samples;Min_cycle;Max_cycle;Signal;HPM_P1;HPM_P2
2021/10/19 00:01:56;;;;;;;;;;;;;;;-144.51;100.00;69251.94;4834784;29;19920;-78
2021/10/19 00:04:40;;;;;;;;;;;;;;;-144.51;100.00;69251.94;4846194;29;20290;-79
2021/10/19 00:07:25;;;;;;;;;;;;;;;-144.51;100.00;69251.94;4846639;29;19920;-79
2021/10/19 00:10:10;;;;;;;;;;;;;;;-144.51;100.00;69251.94;4843992;29;19916;-78
2021/10/19 00:12:54;;;;;;;;;;;;;;;-144.51;100.00;69251.94;4848289;29;20286;-78
2021/10/19 00:15:39;;;;;;;;;;;;;;;-144.51;100.00;69251.94;4854703;29;19916;-78
2021/10/19 00:18:24;;;;;;;;;;;;;;;-144.51;100.00;69251.94;4837136;29;19925;-78
2021/10/19 00:21:08;;;;;;;;;;;;;;;-144.51;100.00;69251.94;4849169;29;19916;-78
2021/10/19 00:23:53;;;;;;;;;;;;;;;-144.51;100.00;69251.94;4865036;29;19937;-78
2021/10/19 00:26:37;;;;;;;;;;;;;;;-144.51;100.00;69251.94;4853950;29;19916;-78
2021/10/19 00:29:22;;;;;;;;;;;;;;;-144.51;100.00;69251.94;4863463;29;19920;-78
2021/10/19 00:32:06;;;;;;;;;;;;;;;-144.51;100.00;69251.94;4852468;29;19915;-79
2021/10/19 00:34:51;;;;;;;;;;;;;;;-144.51;100.00;69251.94;4853562;29;19920;-78
2021/10/19 00:37:35;;;;;;;;;;;;;;;-144.51;100.00;69251.94;4848964;29;19916;-77
2021/10/19 00:40:19;;;;;;;;;;;;;;;-144.51;100.00;69251.94;4860119;29;20453;-77
2021/10/19 00:43:04;;;;;;;;;;;;;;;-144.51;100.00;69251.94;4860861;29;19916;-77
2021/10/19 00:45:50;;;;;;;;;;;;;;;-144.51;100.00;69251.94;4855989;29;19916;-77
2021/10/19 00:48:38;;;;;;;;;;;;;;;-144.51;100.00;69251.94;4833495;29;19920;-77
2021/10/19 00:51:22;;;;;;;;;;;;;;;-144.51;100.00;69251.94;4846801;29;19923;-77
2021/10/19 00:54:07;;;;;;;;;;;;;;;-144.51;100.00;69251.94;4832732;29;19916;-78
2021/10/19 00:56:52;;;;;;;;;;;;;;;-144.51;100.00;69251.94;4841055;29;19920;-77
2021/10/19 00:59:43;;;;;;;;;;;;;;;-144.51;100.00;69251.94;4844765;29;19916;-77
2021/10/19 01:02:27;;;;;;;;;;;;;;;-144.51;100.00;69251.94;4841378;29;20380;-77
2021/10/19 01:05:12;;;;;;;;;;;;;;;-144.51;100.00;69251.94;4846008;29;20309;-77
2021/10/19 01:07:56;;;;;;;;;;;;;;;-144.51;100.00;69251.94;4860233;29;19920;-77
2021/10/19 01:10:43;;;;;;;;;;;;;;;-144.51;100.00;69251.94;4860828;29;19919;-77
2021/10/19 01:13:28;;;;;;;;;;;;;;;-144.51;100.00;69251.94;4860593;29;19916;-77
2021/10/19 01:16:12;;;;;;;;;;;;;;;-144.51;100.00;69251.94;4859565;29;19916;-76
2021/10/19 01:18:57;;;;;;;;;;;;;;;-144.51;100.00;69251.94;4842745;29;19917;-77
2021/10/19 01:21:48;;;;;;;;;;;;;;;-144.51;100.00;69251.94;4846365;29;19919;-76
2021/10/19 01:24:32;;;;;;;;;;;;;;;-144.51;100.00;69251.94;4850582;29;19915;-77
2021/10/19 01:27:17;;;;;;;;;;;;;;;-144.51;100.00;69251.94;4859954;29;20302;-77
2021/10/19 01:30:01;;;;;;;;;;;;;;;-144.51;100.00;69251.94;4845352;29;19931;-76
2021/10/19 01:32:45;;;;;;;;;;;;;;;-144.51;100.00;69251.94;4849102;29;19916;-77
2021/10/19 01:35:31;;;;;;;;;;;;;;;-144.51;100.00;69251.94;4846715;29;19915;-77
2021/10/19 01:38:17;;;;;;;;;;;;;;;-144.51;100.00;69251.94;4846401;29;20420;-77
2021/10/19 01:41:02;;;;;;;;;;;;;;;-144.51;100.00;69251.94;4843136;29;19916;-77
2021/10/19 01:43:47;;;;;;;;;;;;;;;-144.51;100.00;69251.94;4860333;29;19916;-77
2021/10/19 01:46:31;;;;;;;;;;;;;;;-144.51;100.00;69251.94;4847208;29;19923;-77
2021/10/19 01:49:15;;;;;;;;;;;;;;;-144.51;100.00;69251.94;4842176;29;19921;-77
2021/10/19 01:52:00;;;;;;;;;;;;;;;-144.51;100.00;69251.94;4852079;29;19916;-77
2021/10/19 01:54:44;;;;;;;;;;;;;;;-144.51;100.00;69251.94;4841695;29;19916;-77
2021/10/19 01:57:28;;;;;;;;;;;;;;;-144.51;100.00;69251.94;4841326;29;19916;-77
2021/10/19 02:00:13;;;;;;;;;;;;;;;-144.51;100.00;69251.94;4837819;29;19916;-77
2021/10/19 02:02:57;;;;;;;;;;;;;;;-144.51;100.00;69251.94;4834925;29;19916;-77
2021/10/19 02:05:42;;;;;;;;;;;;;;;-144.51;100.00;69251.94;4832654;29;19920;-77
2021/10/19 02:08:26;;;;;;;;;;;;;;;-144.51;100.00;69251.94;4842318;29;20283;-77
2021/10/19 02:11:11;;;;;;;;;;;;;;;-144.51;100.00;69251.94;4838693;29;19916;-77
2021/10/19 02:13:55;;;;;;;;;;;;;;;-144.51;100.00;69251.94;4845712;29;19916;-76
2021/10/19 02:16:40;;;;;;;;;;;;;;;-144.51;100.00;69251.94;4842976;29;20271;-77
2021/10/19 02:19:26;;;;;;;;;;;;;;;-144.51;100.00;69251.94;4841041;29;19916;-76
2021/10/19 02:22:10;;;;;;;;;;;;;;;-144.51;100.00;69251.94;4851826;29;20286;-77
2021/10/19 02:24:57;;;;;;;;;;;;;;;-144.51;100.00;69251.94;4849533;29;19916;-76
2021/10/19 02:27:42;;;;;;;;;;;;;;;-144.51;100.00;69251.94;4854587;29;19924;-77
2021/10/19 02:30:26;;;;;;;;;;;;;;;-144.51;100.00;69251.94;4840846;29;19916;-77
2021/10/19 02:33:11;;;;;;;;;;;;;;;-144.51;100.00;69251.94;4839132;29;19917;-77
2021/10/19 02:35:55;;;;;;;;;;;;;;;-144.51;100.00;69251.94;4845506;29;19916;-77
2021/10/19 02:38:40;;;;;;;;;;;;;;;-144.51;100.00;69251.94;4856748;29;19916;-77
2021/10/19 02:41:24;;;;;;;;;;;;;;;-144.51;100.00;69251.94;4835575;29;19916;-76
2021/10/19 02:44:09;;;;;;;;;;;;;;;-144.51;100.00;69251.94;4859613;29;19916;-76
2021/10/19 02:46:53;;;;;;;;;;;;;;;-144.51;100.00;69251.94;4846512;29;19916;-76
2021/10/19 02:49:37;;;;;;;;;;;;;;;-144.51;100.00;69251.94;4850681;29;19920;-76
2021/10/19 02:52:22;;;;;;;;;;;;;;;-144.51;100.00;69251.94;4857598;29;19920;-77
2021/10/19 02:55:07;;;;;;;;;;;;;;;-144.51;100.00;69251.94;4847008;29;19916;-78
2021/10/19 02:57:51;;;;;;;;;;;;;;;-144.51;100.00;69251.94;4836047;29;19924;-77
2021/10/19 03:00:36;;;;;;;;;;;;;;;-144.51;100.00;69251.94;4860393;29;19916;-77
2021/10/19 03:03:20;;;;;;;;;;;;;;;-144.51;100.00;69251.94;4839839;29;19916;-77
2021/10/19 03:06:05;;;;;;;;;;;;;;;-144.51;100.00;69251.94;4845307;29;19916;-76
2021/10/19 03:08:49;;;;;;;;;;;;;;;-144.51;100.00;69251.94;4846282;29;19920;-77
2021/10/19 03:11:34;;;;;;;;;;;;;;;-144.51;100.00;69251.94;4845513;29;19920;-77
2021/10/19 03:14:18;;;;;;;;;;;;;;;-144.51;100.00;69251.94;4847585;29;19916;-77
2021/10/19 03:17:03;;;;;;;;;;;;;;;-144.51;100.00;69251.94;4852476;29;19916;-77
2021/10/19 03:19:47;;;;;;;;;;;;;;;-144.51;100.00;69251.94;4850952;29;19916;-76
2021/10/19 03:22:32;;;;;;;;;;;;;;;-144.51;100.00;69251.94;4860523;29;19920;-77
2021/10/19 03:25:16;;;;;;;;;;;;;;;-144.51;100.00;69251.94;4862499;29;19916;-77
2021/10/19 03:28:01;;;;;;;;;;;;;;;-144.51;100.00;69251.94;4862544;29;19920;-77
2021/10/19 03:30:45;;;;;;;;;;;;;;;-144.51;100.00;69251.94;4848734;29;19916;-77
2021/10/19 03:33:30;;;;;;;;;;;;;;;-144.51;100.00;69251.94;4860654;29;19916;-78
2021/10/19 03:36:14;;;;;;;;;;;;;;;-144.51;100.00;69251.94;4862360;29;19915;-77
2021/10/19 03:38:58;;;;;;;;;;;;;;;-144.51;100.00;69251.94;4849036;29;19916;-77
2021/10/19 03:41:43;;;;;;;;;;;;;;;-144.51;100.00;69251.94;4848369;29;19916;-77
2021/10/19 03:44:27;;;;;;;;;;;;;;;-144.51;100.00;69251.94;4853888;29;19916;-77
2021/10/19 03:47:12;;;;;;;;;;;;;;;-144.51;100.00;69251.94;4861918;29;19918;-76
2021/10/19 03:49:56;;;;;;;;;;;;;;;-144.51;100.00;69251.94;4862348;29;20301;-77
2021/10/19 03:52:40;;;;;;;;;;;;;;;-144.51;100.00;69251.94;4838390;29;19922;-77
2021/10/19 03:55:25;;;;;;;;;;;;;;;-144.51;100.00;69251.94;4854949;29;19916;-77
2021/10/19 03:58:10;;;;;;;;;;;;;;;-144.51;100.00;69251.94;4896576;23;19931;-77
2021/10/19 04:00:54;;;;;;;;;;;;;;;-144.51;100.00;69251.94;4896917;29;19919;-76
2021/10/19 04:03:39;;;;;;;;;;;;;;;-144.51;100.00;69251.94;4909005;29;19915;-77
2021/10/19 04:06:23;;;;;;;;;;;;;;;-144.51;100.00;69251.94;4906302;29;19915;-77
2021/10/19 04:09:08;;;;;;;;;;;;;;;-144.51;100.00;69251.94;4904308;29;19919;-78
2021/10/19 04:11:52;;;;;;;;;;;;;;;-144.51;100.00;69251.94;4905477;29;19915;-76
2021/10/19 04:14:36;;;;;;;;;;;;;;;-144.51;100.00;69251.94;4904588;29;19919;-77
2021/10/19 04:17:20;;;;;;;;;;;;;;;-144.51;100.00;69251.94;4904083;29;19915;-76
2021/10/19 04:20:05;;;;;;;;;;;;;;;-144.51;100.00;69251.94;4898205;29;19915;-76
2021/10/19 04:22:50;;;;;;;;;;;;;;;-144.51;100.00;69251.94;4879552;29;19919;-77
2021/10/19 04:25:34;;;;;;;;;;;;;;;-144.51;100.00;69251.94;4905346;29;19916;-77
2021/10/19 04:28:18;;;;;;;;;;;;;;;-144.51;100.00;69251.94;4905385;29;19919;-76
2021/10/19 04:31:03;;;;;;;;;;;;;;;-144.51;100.00;69251.94;4904996;29;19915;-75
2021/10/19 04:33:47;;;;;;;;;;;;;;;-144.51;100.00;69251.94;4893636;29;20305;-76
2021/10/19 04:36:32;;;;;;;;;;;;;;;-144.51;100.00;69251.94;4896497;29;19916;-77
2021/10/19 04:39:17;;;;;;;;;;;;;;;-144.51;100.00;69251.94;4898741;29;19915;-76
2021/10/19 04:42:02;;;;;;;;;;;;;;;-144.51;100.00;69251.94;4897452;29;19915;-76
2021/10/19 04:44:48;;;;;;;;;;;;;;;-144.51;100.00;69251.94;4897791;29;20290;-76
2021/10/19 04:47:33;;;;;;;;;;;;;;;-144.51;100.00;69251.94;4896360;29;19915;-78
2021/10/19 04:50:17;;;;;;;;;;;;;;;-144.51;100.00;69251.94;4898969;29;19916;-78
2021/10/19 04:53:01;;;;;;;;;;;;;;;-144.51;100.00;69251.94;4900770;29;19915;-78
2021/10/19 04:55:47;;;;;;;;;;;;;;;-144.51;100.00;69251.94;4888174;29;19915;-78
2021/10/19 04:58:33;;;;;;;;;;;;;;;-144.51;100.00;69251.94;4913654;29;19916;-79
2021/10/19 05:01:17;;;;;;;;;;;;;;;-144.51;100.00;69251.94;4902787;29;19915;-78
2021/10/19 05:04:01;;;;;;;;;;;;;;;-144.51;100.00;69251.94;4899070;29;20300;-78
2021/10/19 05:06:46;;;;;;;;;;;;;;;-144.51;100.00;69251.94;4900355;29;20401;-78
2021/10/19 05:09:32;;;;;;;;;;;;;;;-144.51;100.00;69251.94;4892289;29;19923;-77
2021/10/19 05:12:16;;;;;;;;;;;;;;;-144.51;100.00;69251.94;4899884;29;19915;-77
2021/10/19 05:15:01;;;;;;;;;;;;;;;-144.51;100.00;69251.94;4901993;29;19919;-77
2021/10/19 05:17:46;;;;;;;;;;;;;;;-144.51;100.00;69251.94;4894241;29;20384;-77
2021/10/19 05:20:30;;;;;;;;;;;;;;;-144.51;100.00;69251.94;4894229;29;19919;-77
2021/10/19 05:23:14;;;;;;;;;;;;;;;-144.51;100.00;69251.94;4884852;29;19919;-77
2021/10/19 05:25:59;;;;;;;;;;;;;;;-144.51;100.00;69251.94;4898528;29;20683;-77
2021/10/19 05:28:43;;;;;;;;;;;;;;;-144.51;100.00;69251.94;4899055;29;19919;-77
2021/10/19 05:31:28;;;;;;;;;;;;;;;-144.51;100.00;69251.94;4899147;29;19923;-78
2021/10/19 05:34:12;;;;;;;;;;;;;;;-144.51;100.00;69251.94;4903955;29;19915;-78
2021/10/19 05:36:56;;;;;;;;;;;;;;;-144.51;100.00;69251.94;4902681;29;19915;-78
2021/10/19 05:39:41;;;;;;;;;;;;;;;-144.51;100.00;69251.94;4898991;29;19919;-78
2021/10/19 05:42:25;;;;;;;;;;;;;;;-144.51;100.00;69251.94;4894801;29;19915;-77
2021/10/19 05:45:10;;;;;;;;;;;;;;;-144.51;100.00;69251.94;4896535;29;19916;-75
2021/10/19 05:47:54;;;;;;;;;;;;;;;-144.51;100.00;69251.94;4892585;29;20380;-78
2021/10/19 05:50:38;;;;;;;;;;;;;;;-144.51;100.00;69251.94;4894103;29;19915;-76
2021/10/19 05:53:23;;;;;;;;;;;;;;;-144.51;100.00;69251.94;4887323;29;19915;-76
2021/10/19 05:56:07;;;;;;;;;;;;;;;-144.51;100.00;69251.94;4896211;29;20381;-76
2021/10/19 05:58:52;;;;;;;;;;;;;;;-144.51;100.00;69251.94;4905345;29;19915;-76
2021/10/19 06:01:36;;;;;;;;;;;;;;;-144.51;100.00;69251.94;4893630;29;19915;-77
2021/10/19 06:04:20;;;;;;;;;;;;;;;-144.51;100.00;69251.94;4897436;29;19919;-77
2021/10/19 06:07:05;;;;;;;;;;;;;;;-144.51;100.00;69251.94;4899979;29;19915;-76
2021/10/19 06:09:50;;;;;;;;;;;;;;;-144.51;100.00;69251.94;4898668;29;19923;-77
2021/10/19 06:12:34;;;;;;;;;;;;;;;-144.51;100.00;69251.94;4904007;29;19915;-76
2021/10/19 06:15:20;;;;;;;;;;;;;;;-144.51;100.00;69251.94;4899122;29;19915;-75
2021/10/19 06:18:05;;;;;;;;;;;;;;;-144.51;100.00;69251.94;4899289;29;20298;-79
2021/10/19 06:20:50;;;;;;;;;;;;;;;-144.51;100.00;69251.94;4897804;29;19915;-79
2021/10/19 06:23:34;;;;;;;;;;;;;;;-144.51;100.00;69251.94;4901953;29;20293;-77
2021/10/19 06:26:19;;;;;;;;;;;;;;;-144.51;100.00;69251.94;4897668;29;20285;-79
2021/10/19 06:29:05;;;;;;;;;;;;;;;-144.51;100.00;69251.94;4907303;29;19919;-76
2021/10/19 06:31:49;;;;;;;;;;;;;;;-144.51;100.00;69251.94;4898358;29;19915;-77
2021/10/19 06:34:34;;;;;;;;;;;;;;;-144.51;100.00;69251.94;4897573;29;19919;-75
2021/10/19 06:37:18;;;;;;;;;;;;;;;-144.51;100.00;69251.94;4896291;29;19915;-77
2021/10/19 06:40:04;;;;;;;;;;;;;;;-144.51;100.00;69251.94;4897163;29;19915;-76
2021/10/19 06:42:48;;;;;;;;;;;;;;;-144.51;100.00;69251.94;4898090;29;19915;-75
2021/10/19 06:45:33;;;;;;;;;;;;;;;-144.51;100.00;69251.94;4902360;29;19915;-77
2021/10/19 06:48:17;;;;;;;;;;;;;;;-144.51;100.00;69251.94;4897159;29;19919;-77
2021/10/19 06:51:05;;;;;;;;;;;;;;;-144.51;100.00;69251.94;4900726;29;19915;-79
2021/10/19 06:53:49;;;;;;;;;;;;;;;-144.51;100.00;69251.94;4890915;29;19915;-78
2021/10/19 06:56:33;;;;;;;;;;;;;;;-144.51;100.00;69251.94;4899971;29;19924;-79
2021/10/19 06:59:18;;;;;;;;;;;;;;;-144.51;100.00;69251.94;4908731;29;19915;-76
2021/10/19 07:02:02;;;;;;;;;;;;;;;-144.51;100.00;69251.94;4890602;29;19916;-78
2021/10/19 07:04:46;;;;;;;;;;;;;;;-144.51;100.00;69251.94;4901080;29;19915;-77
2021/10/19 07:07:31;;;;;;;;;;;;;;;-144.51;100.00;69251.94;4900598;29;19919;-77
2021/10/19 07:10:16;;;;;;;;;;;;;;;-144.51;100.00;69251.94;4900125;29;19919;-76
2021/10/19 07:13:01;;;;;;;;;;;;;;;-144.51;100.00;69251.94;4889618;29;19919;-77
2021/10/19 07:15:45;;;;;;;;;;;;;;;-144.51;100.00;69251.94;4902962;29;19916;-76
2021/10/19 07:18:30;;;;;;;;;;;;;;;-144.51;100.00;69251.94;4889160;29;19916;-76
2021/10/19 07:21:15;;;;;;;;;;;;;;;-144.51;100.00;69251.94;4899466;29;19924;-76
2021/10/19 07:23:59;;;;;;;;;;;;;;;-144.51;100.00;69251.94;4900301;29;20270;-78
2021/10/19 07:26:43;;;;;;;;;;;;;;;-144.51;100.00;69251.94;4899554;29;20380;-77
2021/10/19 07:29:28;;;;;;;;;;;;;;;-144.51;100.00;69251.94;4900727;29;19920;-76
2021/10/19 07:32:14;;;;;;;;;;;;;;;-144.51;100.00;69251.94;4906559;29;19915;-76
2021/10/19 07:34:58;;;;;;;;;;;;;;;-144.51;100.00;69251.94;4896627;29;19915;-75
2021/10/19 07:37:44;;;;;;;;;;;;;;;-144.51;100.00;69251.94;4893947;29;20302;-74
2021/10/19 07:40:28;;;;;;;;;;;;;;;-144.51;100.00;69251.94;4896612;29;20301;-76
2021/10/19 07:43:12;;;;;;;;;;;;;;;-144.51;100.00;69251.94;4898496;29;19919;-76
2021/10/19 07:45:56;;;;;;;;;;;;;;;-144.51;100.00;69251.94;4898509;29;20389;-76
2021/10/19 07:48:41;;;;;;;;;;;;;;;-144.51;100.00;69251.94;4893925;29;19923;-76
2021/10/19 07:51:25;;;;;;;;;;;;;;;-144.51;100.00;69251.94;4889899;29;19915;-76
2021/10/19 07:54:10;;;;;;;;;;;;;;;-144.51;100.00;69251.94;4896034;29;19915;-76
2021/10/19 07:56:54;;;;;;;;;;;;;;;-144.51;100.00;69251.94;4897061;29;19915;-76
2021/10/19 07:59:38;;;;;;;;;;;;;;;-144.51;100.00;69251.94;4896378;29;19915;-76
2021/10/19 08:02:23;;;;;;;;;;;;;;;-144.51;100.00;69251.94;4895288;29;20285;-76
2021/10/19 08:05:14;;;;;;;;;;;;;;;-144.51;100.00;69251.94;4899431;29;19916;-77
2021/10/19 08:08:12;;;;;;;;;;;;;;;-144.51;100.00;69251.94;4898141;29;20285;-77
2021/10/19 08:10:57;;;;;;;;;;;;;;;-144.51;100.00;69251.94;4898267;29;19919;-76
2021/10/19 08:13:41;;;;;;;;;;;;;;;-144.51;100.00;69251.94;4900192;29;19919;-76
2021/10/19 08:16:26;;;;;;;;;;;;;;;-144.51;100.00;69251.94;4895858;29;19915;-75
2021/10/19 08:19:11;;;;;;;;;;;;;;;-144.51;100.00;69251.94;4902614;29;20195;-76
2021/10/19 08:21:55;;;;;;;;;;;;;;;-144.51;100.00;69251.94;4906196;29;20308;-77
2021/10/19 08:24:40;;;;;;;;;;;;;;;-144.51;100.00;69251.94;4895214;29;19919;-77
2021/10/19 08:27:25;;;;;;;;;;;;;;;-144.51;100.00;69251.94;4901987;29;19915;-76
2021/10/19 08:30:10;;;;;;;;;;;;;;;-144.51;100.00;69251.94;4892146;29;19920;-78
2021/10/19 08:32:55;;;;;;;;;;;;;;;-144.51;100.00;69251.94;4896769;29;19916;-78
2021/10/19 08:35:40;;;;;;;;;;;;;;;-144.51;100.00;69251.94;4898248;29;20407;-76
2021/10/19 08:38:24;;;;;;;;;;;;;;;-144.51;100.00;69251.94;4899289;29;20278;-75
2021/10/19 08:41:10;;;;;;;;;;;;;;;-144.51;100.00;69251.94;4898711;29;19916;-76
2021/10/19 08:43:55;;;;;;;;;;;;;;;-144.51;100.00;69251.94;4899460;29;19915;-77
2021/10/19 08:46:40;;;;;;;;;;;;;;;-144.51;100.00;69251.94;4901571;29;19915;-77
2021/10/19 08:49:24;;;;;;;;;;;;;;;-144.51;100.00;69251.94;4895614;29;19919;-76
2021/10/19 08:52:09;;;;;;;;;;;;;;;-144.51;100.00;69251.94;4899730;29;19915;-77
2021/10/19 08:54:53;;;;;;;;;;;;;;;-144.51;100.00;69251.94;4899810;29;20300;-77
2021/10/19 08:57:38;;;;;;;;;;;;;;;-144.51;100.00;69251.94;4899688;29;19919;-75
2021/10/19 09:00:24;;;;;;;;;;;;;;;-144.51;100.00;69251.94;4890156;29;19919;-77
2021/10/19 09:03:09;;;;;;;;;;;;;;;-144.51;100.00;69251.94;4894065;29;19915;-76
2021/10/19 09:05:53;;;;;;;;;;;;;;;-144.51;100.00;69251.94;4905696;29;19918;-77
2021/10/19 09:08:42;;;;;;;;;;;;;;;-144.51;100.00;69251.94;4894975;29;19923;-76
2021/10/19 09:11:27;;;;;;;;;;;;;;;-144.51;100.00;69251.94;4897152;29;19915;-76
2021/10/19 09:14:12;;;;;;;;;;;;;;;-144.51;100.00;69251.94;4898653;29;20388;-76
2021/10/19 09:17:00;;;;;;;;;;;;;;;-144.51;100.00;69251.94;4884061;29;19916;-77
2021/10/19 09:19:46;;;;;;;;;;;;;;;-144.51;100.00;69251.94;4898698;29;19916;-77
2021/10/19 09:22:30;;;;;;;;;;;;;;;-144.51;100.00;69251.94;4902443;29;19915;-76
2021/10/19 09:25:22;;;;;;;;;;;;;;;-144.51;100.00;69251.94;4897926;29;19923;-76
2021/10/19 09:28:12;;;;;;;;;;;;;;;-144.51;100.00;69251.94;4898206;29;19915;-76
2021/10/19 09:30:57;;;;;;;;;;;;;;;-144.51;100.00;69251.94;4899365;29;19919;-76
2021/10/19 09:33:42;;;;;;;;;;;;;;;-144.51;100.00;69251.94;4897931;29;19923;-76
2021/10/19 09:36:33;;;;;;;;;;;;;;;-144.51;100.00;69251.94;4891418;29;19915;-76
2021/10/19 09:39:27;;;;;;;;;;;;;;;-144.51;100.00;69251.94;4902038;29;19914;-76
2021/10/19 09:42:25;;;;;;;;;;;;;;;-144.51;100.00;69251.94;4898135;29;19919;-77
2021/10/19 09:45:10;;;;;;;;;;;;;;;-144.51;100.00;69251.94;4906925;29;19915;-76
2021/10/19 09:47:58;;;;;;;;;;;;;;;-144.51;100.00;69251.94;4901740;29;19915;-76
2021/10/19 09:50:43;;;;;;;;;;;;;;;-144.51;100.00;69251.94;4897901;29;19923;-76
2021/10/19 09:53:29;;;;;;;;;;;;;;;-144.51;100.00;69251.94;4900074;29;19915;-76
2021/10/19 09:56:13;;;;;;;;;;;;;;;-144.51;100.00;69251.94;4883698;29;19915;-76
2021/10/19 09:58:58;;;;;;;;;;;;;;;-144.51;100.00;69251.94;4928380;23;19927;-68
2021/10/19 10:01:44;;;;;;;;;;;;;;;-144.51;100.00;69251.94;4907181;29;19919;-67
2021/10/19 10:04:28;;;;;;;;;;;;;;;-144.51;100.00;69251.94;4913025;29;19915;-66
2021/10/19 10:07:14;;;;;;;;;;;;;;;-144.51;100.00;69251.94;4907450;29;19915;-67
2021/10/19 10:09:59;;;;;;;;;;;;;;;-144.51;100.00;69251.94;4914777;29;20291;-68
2021/10/19 10:12:49;;;;;;;;;;;;;;;-144.51;100.00;69251.94;4905840;29;19915;-68
2021/10/19 10:15:35;;;;;;;;;;;;;;;-144.51;100.00;69251.94;4919219;29;19915;-68
2021/10/19 10:18:32;;;;;;;;;;;;;;;-144.51;100.00;69251.94;4916239;29;20286;-68
2021/10/19 10:21:17;;;;;;;;;;;;;;;-144.51;100.00;69251.94;4916151;29;20256;-68
2021/10/19 10:24:04;;;;;;;;;;;;;;;-144.51;100.00;69251.94;4916094;29;19918;-68
2021/10/19 10:26:48;;;;;;;;;;;;;;;-144.51;100.00;69251.94;4916142;29;19915;-68
2021/10/19 10:29:42;;;;;;;;;;;;;;;-144.51;100.00;69251.94;4916128;29;19919;-68
2021/10/19 10:32:30;;;;;;;;;;;;;;;-144.51;100.00;69251.94;4916314;29;19915;-68
2021/10/19 10:35:16;;;;;;;;;;;;;;;-144.51;100.00;69251.94;4921941;29;19915;-68
2021/10/19 10:38:03;;;;;;;;;;;;;;;-144.51;100.00;69251.94;4902094;29;20299;-68
2021/10/19 10:40:47;;;;;;;;;;;;;;;-144.51;100.00;69251.94;4916239;29;20298;-68
2021/10/19 10:43:34;;;;;;;;;;;;;;;-144.51;100.00;69251.94;4917608;29;19919;-68
2021/10/19 10:46:20;;;;;;;;;;;;;;;-144.51;100.00;69251.94;4915734;29;19919;-68
2021/10/19 10:49:11;;;;;;;;;;;;;;;-144.51;100.00;69251.94;4912320;29;19919;-68
2021/10/19 10:51:56;;;;;;;;;;;;;;;-144.51;100.00;69251.94;4904968;29;19915;-68
2021/10/19 10:55:10;;;;;;;;;;;;;;;-144.51;100.00;69251.94;4916151;29;19919;-68
2021/10/19 10:57:54;;;;;;;;;;;;;;;-144.51;100.00;69251.94;4902453;29;20363;-68
2021/10/19 11:00:39;;;;;;;;;;;;;;;-144.51;100.00;69251.94;4915892;29;20290;-68
2021/10/19 11:03:23;;;;;;;;;;;;;;;-144.51;100.00;69251.94;4905475;29;19915;-68
2021/10/19 11:06:11;;;;;;;;;;;;;;;-144.51;100.00;69251.94;4913478;29;20379;-69
2021/10/19 11:08:56;;;;;;;;;;;;;;;-144.51;100.00;69251.94;4917644;29;19915;-69
2021/10/19 11:11:42;;;;;;;;;;;;;;;-144.51;100.00;69251.94;4915939;29;19919;-69
2021/10/19 11:14:26;;;;;;;;;;;;;;;-144.51;100.00;69251.94;4905687;29;20375;-68
2021/10/19 11:17:11;;;;;;;;;;;;;;;-144.51;100.00;69251.94;4914257;29;19915;-67
2021/10/19 11:19:56;;;;;;;;;;;;;;;-144.51;100.00;69251.94;4914838;29;19915;-68
2021/10/19 11:22:41;;;;;;;;;;;;;;;-144.51;100.00;69251.94;4925721;29;19915;-69
2021/10/19 11:25:26;;;;;;;;;;;;;;;-144.51;100.00;69251.94;4924680;29;19919;-68
2021/10/19 11:28:11;;;;;;;;;;;;;;;-144.51;100.00;69251.94;4923864;29;20294;-68
2021/10/19 11:30:56;;;;;;;;;;;;;;;-144.51;100.00;69251.94;4917050;29;20386;-68
2021/10/19 11:33:42;;;;;;;;;;;;;;;-144.51;100.00;69251.94;4916932;29;19918;-68
2021/10/19 11:36:26;;;;;;;;;;;;;;;-144.51;100.00;69251.94;4927389;29;19918;-68
2021/10/19 11:39:14;;;;;;;;;;;;;;;-144.51;100.00;69251.94;4924846;29;19915;-68
2021/10/19 11:42:03;;;;;;;;;;;;;;;-144.51;100.00;69251.94;4927994;29;19915;-68
2021/10/19 11:44:48;;;;;;;;;;;;;;;-144.51;100.00;69251.94;4928417;29;20398;-68
2021/10/19 11:47:41;;;;;;;;;;;;;;;-144.51;100.00;69251.94;4928984;29;19919;-69
2021/10/19 11:50:30;;;;;;;;;;;;;;;-144.51;100.00;69251.94;4927656;29;19918;-68
2021/10/19 11:53:15;;;;;;;;;;;;;;;-144.51;100.00;69251.94;4924021;29;19914;-68
2021/10/19 11:56:01;;;;;;;;;;;;;;;-144.51;100.00;69251.94;4921457;29;19915;-68
2021/10/19 11:58:49;;;;;;;;;;;;;;;-144.51;100.00;69251.94;4918604;29;20359;-68
2021/10/19 12:01:39;;;;;;;;;;;;;;;-144.51;100.00;69251.94;4911774;29;19915;-68
2021/10/19 12:04:25;;;;;;;;;;;;;;;-144.51;100.00;69251.94;4901732;29;19915;-69
2021/10/19 12:07:09;;;;;;;;;;;;;;;-144.51;100.00;69251.94;4916848;29;19915;-69
2021/10/19 12:09:54;;;;;;;;;;;;;;;-144.51;100.00;69251.94;4916568;29;19919;-69
2021/10/19 12:12:38;;;;;;;;;;;;;;;-144.51;100.00;69251.94;4920730;29;19915;-68
2021/10/19 12:15:24;;;;;;;;;;;;;;;-144.51;100.00;69251.94;4899083;29;19919;-69
2021/10/19 12:18:14;;;;;;;;;;;;;;;-144.51;100.00;69251.94;4899294;29;19915;-69
2021/10/19 12:21:01;;;;;;;;;;;;;;;-144.51;100.00;69251.94;4910875;29;19969;-69
2021/10/19 12:23:53;;;;;;;;;;;;;;;-144.51;100.00;69251.94;4913607;29;19923;-69
2021/10/19 12:26:38;;;;;;;;;;;;;;;-144.51;100.00;69251.94;4906399;29;19916;-69
2021/10/19 12:29:22;;;;;;;;;;;;;;;-144.51;100.00;69251.94;4910751;29;19923;-68
2021/10/19 12:32:07;;;;;;;;;;;;;;;-144.51;100.00;69251.94;4917362;29;19915;-68
2021/10/19 12:34:52;;;;;;;;;;;;;;;-144.51;100.00;69251.94;4917910;29;19915;-68
2021/10/19 12:37:37;;;;;;;;;;;;;;;-144.51;100.00;69251.94;4907309;29;19915;-68
2021/10/19 12:40:23;;;;;;;;;;;;;;;-144.51;100.00;69251.94;4898925;29;19919;-68
2021/10/19 12:43:08;;;;;;;;;;;;;;;-144.51;100.00;69251.94;4898898;29;19919;-69
2021/10/19 12:45:52;;;;;;;;;;;;;;;-144.51;100.00;69251.94;4913709;29;19919;-69
2021/10/19 12:48:38;;;;;;;;;;;;;;;-144.51;100.00;69251.94;4919063;29;19914;-68
2021/10/19 12:51:24;;;;;;;;;;;;;;;-144.51;100.00;69251.94;4917637;29;19923;-68
2021/10/19 12:54:09;;;;;;;;;;;;;;;-144.51;100.00;69251.94;4909736;29;20371;-69
2021/10/19 12:56:53;;;;;;;;;;;;;;;-144.51;100.00;69251.94;4918847;29;19914;-68
2021/10/19 12:59:38;;;;;;;;;;;;;;;-144.51;100.00;69251.94;4913285;29;20379;-68
2021/10/19 13:02:25;;;;;;;;;;;;;;;-144.51;100.00;69251.94;4910137;29;19919;-68
2021/10/19 13:05:10;;;;;;;;;;;;;;;-144.51;100.00;69251.94;4916452;29;20294;-68
2021/10/19 13:07:54;;;;;;;;;;;;;;;-144.51;100.00;69251.94;4913987;29;19915;-67
2021/10/19 13:10:38;;;;;;;;;;;;;;;-144.51;100.00;69251.94;4916805;29;19919;-68
2021/10/19 13:13:23;;;;;;;;;;;;;;;-144.51;100.00;69251.94;4917557;29;19915;-68
2021/10/19 13:16:07;;;;;;;;;;;;;;;-144.51;100.00;69251.94;4917119;29;19915;-68
2021/10/19 13:18:54;;;;;;;;;;;;;;;-144.51;100.00;69251.94;4920776;29;19919;-68
2021/10/19 13:21:39;;;;;;;;;;;;;;;-144.51;100.00;69251.94;4917204;29;19915;-68
2021/10/19 13:24:24;;;;;;;;;;;;;;;-144.51;100.00;69251.94;4917689;29;19919;-68
2021/10/19 13:27:09;;;;;;;;;;;;;;;-144.51;100.00;69251.94;4917367;29;19915;-68
2021/10/19 13:29:53;;;;;;;;;;;;;;;-144.51;100.00;69251.94;4917270;29;19923;-68
2021/10/19 13:32:38;;;;;;;;;;;;;;;-144.51;100.00;69251.94;4916090;29;19915;-68
2021/10/19 13:35:22;;;;;;;;;;;;;;;-144.51;100.00;69251.94;4917089;29;19915;-67
2021/10/19 13:38:07;;;;;;;;;;;;;;;-144.51;100.00;69251.94;4917079;29;19915;-68
2021/10/19 13:40:51;;;;;;;;;;;;;;;-144.51;100.00;69251.94;4918525;29;19915;-68
2021/10/19 13:43:36;;;;;;;;;;;;;;;-144.51;100.00;69251.94;4916999;29;20363;-68
2021/10/19 13:46:21;;;;;;;;;;;;;;;-144.51;100.00;69251.94;4917020;29;19915;-67
2021/10/19 13:49:06;;;;;;;;;;;;;;;-144.51;100.00;69251.94;4904226;29;19915;-68